createdAt,value
2018-09-29T00:01:09.516Z,11.97
2018-09-29T00:03:39.651Z,11.97
2018-09-29T00:06:09.710Z,11.96
2018-09-29T00:08:39.724Z,12.01
2018-09-29T00:11:10.148Z,12.06
2018-09-29T00:13:40.238Z,12.10
2018-09-29T00:16:11.031Z,12.07
2018-09-29T00:18:41.067Z,12.07
2018-09-29T00:21:11.182Z,12.04
2018-09-29T00:23:41.262Z,12.02
2018-09-29T00:26:11.544Z,12.03
2018-09-29T00:28:41.752Z,12.03
2018-09-29T00:31:11.993Z,12.02
2018-09-29T00:33:42.182Z,11.96
2018-09-29T00:36:12.267Z,11.93
2018-09-29T00:38:42.605Z,11.94
2018-09-29T00:41:12.795Z,11.93
2018-09-29T00:43:43.077Z,11.88
2018-09-29T00:46:13.784Z,11.84
2018-09-29T00:48:44.010Z,11.80
2018-09-29T00:51:14.275Z,11.82
2018-09-29T00:53:44.452Z,11.81
2018-09-29T00:56:15.592Z,11.82
2018-09-29T00:58:45.644Z,11.83
2018-09-29T01:01:15.801Z,11.77
2018-09-29T01:03:46.009Z,11.74
2018-09-29T01:06:16.013Z,11.74
2018-09-29T01:08:46.327Z,11.74
2018-09-29T01:11:16.453Z,11.77
2018-09-29T01:13:46.843Z,11.73
2018-09-29T01:16:16.912Z,11.68
2018-09-29T01:18:47.109Z,11.65
2018-09-29T01:21:17.062Z,11.64
2018-09-29T01:23:47.163Z,11.62
2018-09-29T01:26:17.209Z,11.60
2018-09-29T01:28:47.442Z,11.53
2018-09-29T01:31:17.676Z,11.48
2018-09-29T01:33:47.748Z,11.43
2018-09-29T01:36:17.954Z,11.41
2018-09-29T01:38:47.944Z,11.42
2018-09-29T01:41:18.104Z,11.41
2018-09-29T01:43:48.372Z,11.37
2018-09-29T01:46:18.268Z,11.32
2018-09-29T01:48:48.405Z,11.27
2018-09-29T01:51:18.533Z,11.29
2018-09-29T01:53:48.751Z,11.26
2018-09-29T01:56:19.163Z,11.23
2018-09-29T01:58:51.954Z,11.18
2018-09-29T02:01:21.984Z,11.21
2018-09-29T02:03:52.057Z,11.20
2018-09-29T02:06:22.294Z,11.16
2018-09-29T02:08:52.606Z,11.11
2018-09-29T02:11:22.610Z,11.07
2018-09-29T02:13:53.296Z,11.05
2018-09-29T02:16:23.296Z,11.05
2018-09-29T02:18:53.328Z,11.01
2018-09-29T02:21:23.572Z,10.99
2018-09-29T02:23:53.508Z,11.01
2018-09-29T02:26:23.562Z,11.02
2018-09-29T02:28:53.778Z,11.01
2018-09-29T02:31:23.892Z,10.99
2018-09-29T02:33:54.364Z,10.99
2018-09-29T02:36:24.418Z,10.98
2018-09-29T02:38:54.414Z,10.96
2018-09-29T02:41:24.420Z,10.93
2018-09-29T02:43:54.765Z,10.90
2018-09-29T02:46:24.709Z,10.90
2018-09-29T02:48:54.778Z,10.92
2018-09-29T02:51:25.168Z,10.93
2018-09-29T02:53:55.207Z,10.96
2018-09-29T02:56:25.308Z,10.94
2018-09-29T02:58:55.531Z,10.91
2018-09-29T03:01:25.865Z,10.81
2018-09-29T03:03:56.194Z,10.77
2018-09-29T03:06:26.347Z,10.72
2018-09-29T03:08:56.516Z,10.71
2018-09-29T03:11:26.738Z,10.73
2018-09-29T03:13:56.648Z,10.72
2018-09-29T03:16:26.881Z,10.69
2018-09-29T03:18:56.993Z,10.68
2018-09-29T03:21:27.118Z,10.67
2018-09-29T03:23:57.184Z,10.68
2018-09-29T03:26:27.183Z,10.65
2018-09-29T03:28:58.843Z,10.62
2018-09-29T03:31:28.940Z,10.63
2018-09-29T03:33:58.817Z,10.64
2018-09-29T03:36:29.009Z,10.63
2018-09-29T03:38:59.704Z,10.58
2018-09-29T03:41:29.913Z,10.54
2018-09-29T03:44:00.651Z,10.53
2018-09-29T03:46:30.663Z,10.53
2018-09-29T03:49:00.929Z,10.52
2018-09-29T03:51:31.317Z,10.45
2018-09-29T03:54:01.985Z,10.42
2018-09-29T03:56:32.051Z,10.43
2018-09-29T03:59:02.382Z,10.40
2018-09-29T04:01:32.501Z,10.32
2018-09-29T04:04:02.631Z,10.30
2018-09-29T04:06:32.695Z,10.28
2018-09-29T04:09:02.759Z,10.23
2018-09-29T04:11:32.951Z,10.19
2018-09-29T04:14:04.439Z,10.16
2018-09-29T04:16:34.400Z,10.18
2018-09-29T04:19:04.467Z,10.19
2018-09-29T04:21:38.524Z,10.24
2018-09-29T04:24:08.692Z,10.24
2018-09-29T04:26:38.710Z,10.20
2018-09-29T04:29:08.811Z,10.18
2018-09-29T04:31:39.153Z,10.17
2018-09-29T04:34:09.373Z,10.17
2018-09-29T04:36:39.499Z,10.17
2018-09-29T04:39:12.074Z,10.20
2018-09-29T04:41:42.106Z,10.22
2018-09-29T04:44:12.900Z,10.21
2018-09-29T04:46:43.260Z,10.18
2018-09-29T04:49:13.410Z,10.15
2018-09-29T04:51:43.278Z,10.12
2018-09-29T04:54:13.311Z,10.13
2018-09-29T04:56:43.464Z,10.10
2018-09-29T04:59:13.692Z,10.01
2018-09-29T05:01:43.706Z,9.99
2018-09-29T05:04:13.983Z,9.98
2018-09-29T05:06:44.005Z,9.94
2018-09-29T05:09:14.111Z,9.93
2018-09-29T05:11:44.231Z,9.98
2018-09-29T05:14:14.101Z,9.96
2018-09-29T05:16:44.083Z,9.93
2018-09-29T05:19:14.077Z,9.93
2018-09-29T05:21:44.175Z,9.93
2018-09-29T05:24:14.125Z,9.94
2018-09-29T05:26:44.292Z,9.95
2018-09-29T05:29:14.578Z,9.94
2018-09-29T05:31:44.527Z,9.92
2018-09-29T05:34:15.048Z,9.97
2018-09-29T05:36:45.468Z,9.99
2018-09-29T05:39:16.732Z,9.99
2018-09-29T05:41:46.758Z,9.99
2018-09-29T05:44:16.876Z,10.01
2018-09-29T05:46:47.039Z,10.03
2018-09-29T05:49:17.360Z,10.06
2018-09-29T05:51:47.746Z,10.04
2018-09-29T05:54:18.981Z,10.00
2018-09-29T05:56:49.482Z,9.97
2018-09-29T05:59:19.755Z,9.97
2018-09-29T06:01:49.817Z,10.01
2018-09-29T06:04:20.110Z,10.04
2018-09-29T06:06:50.298Z,10.06
2018-09-29T06:09:20.450Z,10.06
2018-09-29T06:11:50.514Z,10.11
2018-09-29T06:14:20.535Z,10.13
2018-09-29T06:16:51.484Z,10.17
2018-09-29T06:19:21.609Z,10.17
2018-09-29T06:21:51.733Z,10.17
2018-09-29T06:24:21.746Z,10.18
2018-09-29T06:26:51.802Z,10.17
2018-09-29T06:29:22.372Z,10.18
2018-09-29T06:31:52.614Z,10.20
2018-09-29T06:34:22.805Z,10.20
2018-09-29T06:36:53.871Z,10.21
2018-09-29T06:39:24.474Z,10.23
2018-09-29T06:41:54.473Z,10.27
2018-09-29T06:44:24.739Z,10.34
2018-09-29T06:46:55.123Z,10.38
2018-09-29T06:49:25.293Z,10.45
2018-09-29T06:51:55.431Z,10.49
2018-09-29T06:54:25.687Z,10.55
2018-09-29T06:56:55.775Z,10.58
2018-09-29T06:59:25.996Z,10.62
2018-09-29T07:01:56.272Z,10.68
2018-09-29T07:04:26.401Z,10.70
2018-09-29T07:06:56.625Z,10.77
2018-09-29T07:09:26.812Z,10.83
2018-09-29T07:11:56.969Z,10.95
2018-09-29T07:14:27.395Z,11.06
2018-09-29T07:16:57.678Z,11.18
2018-09-29T07:19:27.885Z,11.25
2018-09-29T07:21:58.261Z,11.36
2018-09-29T07:24:28.415Z,11.40
2018-09-29T07:26:58.443Z,11.46
2018-09-29T07:29:28.465Z,11.48
2018-09-29T07:31:58.757Z,11.51
2018-09-29T07:34:29.526Z,11.50
2018-09-29T07:36:59.901Z,11.52
2018-09-29T07:39:30.589Z,11.57
2018-09-29T07:42:00.754Z,11.62
2018-09-29T07:44:31.083Z,11.67
2018-09-29T07:47:01.824Z,11.69
2018-09-29T07:49:32.034Z,11.72
2018-09-29T07:52:02.405Z,11.80
2018-09-29T07:54:32.721Z,11.83
2018-09-29T07:57:02.810Z,11.84
2018-09-29T07:59:32.948Z,11.97
2018-09-29T08:02:03.886Z,11.99
2018-09-29T08:04:34.915Z,12.07
2018-09-29T08:07:05.294Z,12.10
2018-09-29T08:09:35.552Z,12.18
2018-09-29T08:12:05.922Z,12.24
2018-09-29T08:14:36.958Z,12.29
2018-09-29T08:17:07.117Z,12.34
2018-09-29T08:19:37.509Z,12.42
2018-09-29T08:22:07.737Z,12.51
2018-09-29T08:24:37.988Z,12.51
2018-09-29T08:27:08.273Z,12.51
2018-09-29T08:29:38.409Z,12.50
2018-09-29T08:32:08.843Z,12.58
2018-09-29T08:34:39.034Z,12.65
2018-09-29T08:37:08.989Z,12.64
2018-09-29T08:39:39.286Z,12.62
2018-09-29T08:42:09.367Z,12.67
2018-09-29T08:44:39.535Z,12.71
2018-09-29T08:47:09.687Z,12.73
2018-09-29T08:49:40.512Z,12.72
2018-09-29T08:52:10.780Z,12.67
2018-09-29T08:54:40.859Z,12.64
2018-09-29T08:57:10.982Z,12.74
2018-09-29T08:59:41.073Z,12.78
2018-09-29T09:02:11.472Z,12.84
2018-09-29T09:04:41.724Z,12.88
2018-09-29T09:07:11.978Z,13.01
2018-09-29T09:09:42.131Z,13.06
2018-09-29T09:12:12.428Z,13.06
2018-09-29T09:14:42.675Z,13.04
2018-09-29T09:17:13.281Z,13.13
2018-09-29T09:19:43.540Z,13.24
2018-09-29T09:22:13.925Z,13.29
2018-09-29T09:24:44.173Z,13.38
2018-09-29T09:27:14.328Z,13.40
2018-09-29T09:29:44.536Z,13.40
2018-09-29T09:32:14.819Z,13.36
2018-09-29T09:34:44.987Z,13.38
2018-09-29T09:37:15.143Z,13.52
2018-09-29T09:39:45.560Z,13.56
2018-09-29T09:42:15.779Z,13.65
2018-09-29T09:44:46.205Z,13.62
2018-09-29T09:47:16.550Z,13.71
2018-09-29T09:49:46.610Z,13.74
2018-09-29T09:52:16.948Z,13.79
2018-09-29T09:54:47.225Z,13.87
2018-09-29T09:57:17.511Z,13.87
2018-09-29T09:59:47.569Z,13.81
2018-09-29T10:02:22.896Z,13.88
2018-09-29T10:04:52.980Z,13.93
2018-09-29T10:07:23.229Z,14.05
2018-09-29T10:09:53.373Z,14.08
2018-09-29T10:12:23.675Z,14.09
2018-09-29T10:14:53.851Z,14.21
2018-09-29T10:17:24.107Z,14.29
2018-09-29T10:19:54.385Z,14.28
2018-09-29T10:22:24.539Z,14.27
2018-09-29T10:24:55.133Z,14.34
2018-09-29T10:27:25.303Z,14.32
2018-09-29T10:29:55.585Z,14.41
2018-09-29T10:32:25.536Z,14.48
2018-09-29T10:34:55.914Z,14.45
2018-09-29T10:37:26.267Z,14.50
2018-09-29T10:39:56.666Z,14.54
2018-09-29T10:42:26.916Z,14.52
2018-09-29T10:44:57.178Z,14.48
2018-09-29T10:47:28.208Z,14.40
2018-09-29T10:49:58.405Z,14.46
2018-09-29T10:52:28.724Z,14.56
2018-09-29T10:54:58.937Z,14.43
2018-09-29T10:57:29.123Z,14.55
2018-09-29T10:59:59.432Z,14.66
2018-09-29T11:02:29.561Z,14.74
2018-09-29T11:04:59.840Z,14.76
2018-09-29T11:07:29.816Z,14.76
2018-09-29T11:10:00.005Z,14.85
2018-09-29T11:12:30.125Z,14.91
2018-09-29T11:15:00.388Z,14.93
2018-09-29T11:17:30.630Z,14.91
2018-09-29T11:20:00.965Z,14.87
2018-09-29T11:22:31.196Z,14.87
2018-09-29T11:25:01.582Z,14.99
2018-09-29T11:27:31.705Z,15.08
2018-09-29T11:30:01.826Z,15.09
2018-09-29T11:32:32.114Z,15.14
2018-09-29T11:35:02.327Z,15.23
2018-09-29T11:37:32.546Z,15.27
2018-09-29T11:40:02.865Z,15.23
2018-09-29T11:42:32.951Z,15.29
2018-09-29T11:45:03.191Z,15.37
2018-09-29T11:47:33.666Z,15.28
2018-09-29T11:50:03.795Z,15.27
2018-09-29T11:52:34.049Z,15.24
2018-09-29T11:55:04.401Z,15.23
2018-09-29T11:57:34.606Z,15.30
2018-09-29T12:00:04.859Z,15.30
2018-09-29T12:02:34.895Z,15.33
2018-09-29T12:05:05.049Z,15.37
2018-09-29T12:07:35.250Z,15.40
2018-09-29T12:10:05.386Z,15.48
2018-09-29T12:12:35.687Z,15.52
2018-09-29T12:15:05.821Z,15.49
2018-09-29T12:17:36.005Z,15.49
2018-09-29T12:20:06.192Z,15.56
2018-09-29T12:22:36.361Z,15.63
2018-09-29T12:25:06.739Z,15.59
2018-09-29T12:27:37.337Z,15.51
2018-09-29T12:30:08.139Z,15.52
2018-09-29T12:32:38.242Z,15.52
2018-09-29T12:35:08.504Z,15.51
2018-09-29T12:37:38.843Z,15.59
2018-09-29T12:40:08.961Z,15.59
2018-09-29T12:42:39.267Z,15.65
2018-09-29T12:45:09.581Z,15.62
2018-09-29T12:47:39.883Z,15.66
2018-09-29T12:50:10.208Z,15.72
2018-09-29T12:52:40.397Z,15.75
2018-09-29T12:55:10.584Z,15.78
2018-09-29T12:57:40.881Z,15.80
2018-09-29T13:00:11.131Z,15.84
2018-09-29T13:02:41.139Z,15.87
2018-09-29T13:05:11.333Z,15.88
2018-09-29T13:07:41.522Z,15.90
2018-09-29T13:10:11.603Z,15.92
2018-09-29T13:12:41.837Z,15.92
2018-09-29T13:15:12.561Z,15.91
2018-09-29T13:17:42.788Z,15.92
2018-09-29T13:20:13.010Z,15.91
2018-09-29T13:22:43.183Z,15.94
2018-09-29T13:25:22.482Z,15.97
